INFORMACIÓN METAR y TAF
METAR FOR HECA
ADDS - METARS form results

(0617 UTC 22 August 2019)
Data provider http://aviationweather.gov/metar/data/
 
METAR text: HECA 220600Z 03007KT CAVOK 28/20 Q1011 NOSIG
Conditions at: HECA (CAIRO INTL AIRPO, EG) observed 0600 UTC 22 August 2019
Temperature: 28.0°C (82°F)
Dewpoint: 20.0°C (68°F) [RH = 62%]
Pressure (altimeter): 29.85 inches Hg (1011.0 mb)
Winds: from the NNE (30 degrees) at 8 MPH (7 knots; 3.6 m/s)
Visibility: 6 or more miles (10+ km)
Ceiling: ceiling and visibility are OK
Clouds: unknown
Weather: no significant weather observed at this time

METAR text: HECA 220530Z 04005KT CAVOK 26/20 Q1011 NOSIG
Conditions at: HECA (CAIRO INTL AIRPO, EG) observed 0530 UTC 22 August 2019
Temperature: 26.0°C (79°F)
Dewpoint: 20.0°C (68°F) [RH = 70%]
Pressure (altimeter): 29.85 inches Hg (1011.0 mb)
Winds: from the NE (40 degrees) at 6 MPH (5 knots; 2.6 m/s)
Visibility: 6 or more miles (10+ km)
Ceiling: ceiling and visibility are OK
Clouds: unknown
Weather: no significant weather observed at this time

Forecast for: HECA (CAIRO INTL AIRPO, EG)
Text: TAF HECA 220500Z 2206/2312 04008KT CAVOK
Forecast period: 0600 UTC 22 August 2019 to 1200 UTC 23 August 2019
Forecast type: FROM: standard forecast or significant change
Winds: from the NE (40 degrees) at 9 MPH (8 knots; 4.1 m/s)
Visibility: 6 or more miles 10+ km)
Ceiling: unknown
Clouds: missing
Weather: NSW  (no significant weather)

 MAPA DE AEROPUERTO

 INFORMACIÓN DE PISTA
Pista 05R Longitud 13124 ft Ancho 197 ft
Elevación 382 ft Umbral desplazado 0 ft Rumbo de pista 49
Pista 23L Longitud 13124 ft Ancho 197 ft
Elevación 375 ft Umbral desplazado 0 ft Rumbo de pista 229
Pista 05L Longitud 10830 ft Ancho 197 ft
Elevación 190 ft Umbral desplazado 0 ft Rumbo de pista 49
Pista 23R Longitud 10830 ft Ancho 197 ft
Elevación 199 ft Umbral desplazado 0 ft Rumbo de pista 229
Pista 05C Longitud 13120 ft Ancho 197 ft
Elevación 382 ft Umbral desplazado 0 ft Rumbo de pista 45
Pista 23C Longitud 13120 ft Ancho 197 ft
Elevación 0 ft Umbral desplazado 0 ft Rumbo de pista 225

 FRECUANCIAS DEL AEROPUERTO
Tipo APP Nombre APP Frecuencia 119.05 MHZ
Tipo ATIS Nombre ATIS Frecuencia 122.6 MHZ
Tipo GND Nombre GND Frecuencia 121.9 MHZ
Tipo MISC Nombre VOLMET Frecuencia 126.2 MHZ
Tipo PFLT Nombre PREFLIGHT Frecuencia 120.1 MHZ
Tipo TWR Nombre TWR Frecuencia 118.1 MHZ
Tipo rdo Nombre cairo radi Frecuencia 11.3 MHZ
Tipo Volmet Nombre Frecuencia 124.6 MHZ

 RADIO AYUDAS DEL AEROPUERTO
Tipo NDB Nombre Cairo Frecuencia 310 KHZ
Tipo VOR-DME Nombre Cairo Frecuencia 112500 KHZ
Tipo VOR-DME Nombre Cairo Frecuencia 115200 KHZ
Tipo NDB Nombre Cairo Frecuencia 317 KHZ



              


PayPal

©2019 Oasis Virtual Airlines
Simulando desde el 2013

Oasis Líneas Aéreas Virtuales no está relacionada con ninguna compañía real.
Se trata de un entorno virtual de simulación aérea, sin ánimo de lucro.


Visitas: 43.107

VAM v2.6.2 [MOD.]